Plum Branch, SC (29845)

7:44 AM EST on March 02, 2015 (GMT -0500)
Plum Branch South Carolina | Change Station
CLOSE
Current Station
Personal Weather Station
Location: Plum Branch, SC
Elevation: 354 ft
Nearby Weather Stations
Active Advisory: Dense Fog Advisory

Elev 354 ft 33.81 °N, 82.31 °W | Updated 14 seconds ago

Overcast
Overcast
54.7 °F
Feels Like 54.7 °F
N
0.0
Wind Variable Wind from NNE
Gusts 3.4 mph

Today
High -- | Low -- °F
--% Chance of Precip.
Yesterday
High -- | Low -- °F
Precip. -- in
6:56 AM 6:26 PM
Waxing Gibbous, 91% visible
Pressure 30.33 in
Visibility 2.0 miles
Clouds Overcast 200 ft
Dew Point 51 °F
Humidity 88%
Rainfall 0.00 in
Snow Depth Not available.
UV 0 out of 12
Pollen 3.40 out of 12
Air Quality Not available.
Flu Activity Not available.
METAR KHQU 021235Z AUTO 00000KT 2SM OVC002 09/09 A3033 RMK AO1 T00870087

More Conditions Fewer Conditions

Pressure 30.33 in
Visibility 2.0 miles
Clouds Overcast 200 ft
Dew Point 51 °F
Humidity 88%
Rainfall 0.00 in
Snow Depth Not available.
UV 0 out of 12
Pollen 3.40 out of 12
Air Quality Not available.
Flu Activity Not available.
METAR KHQU 021235Z AUTO 00000KT 2SM OVC002 09/09 A3033 RMK AO1 T00870087

More Conditions Fewer Conditions

10-Day Weather Forecast

Almanac

Astronomy

Mar. 02, 2015 Rise Set
Actual Time
Civil Twilight
Nautical Twilight
Astronomical Twilight
Moon
Length of Visible Light
Length of Day
Tomorrow will be .
, % of the Moon is Illuminated

Today's Extremes

State Highs State Lows

Community

WunderPhotos

Upload Photos

1,801,772 photos uploaded!

WunderBlogs® & News

Nearby

Air Quality

  Air Quality AQ Index Pollutant
Not available.

Snow Depth

Station Depth Elevation

Earthquake Activity

City Distance Mag. Time & Date
Minimum magnitude displayed is 2.5.

Coastal Water Temperatures

Place Temperature

Nearby Weather Stations

Dense Fog Advisory
Statement as of 1:53 AM EST on March 02, 2015

... Dense fog advisory in effect until 9 am EST this morning...

The National Weather Service in Columbia has issued a dense fog
advisory... which is in effect until 9 am EST this morning.

* Visibility... one quarter mile or less.

* Impacts... hazardous driving conditions.

Precautionary/preparedness actions...

A dense fog advisory means visibilities will frequently be
reduced to less than one quarter mile. If driving... slow down...
use your headlights... and leave plenty of distance ahead of you.